sensor_id;sensor_type;location;lat;lon;timestamp;P1;durP1;ratioP1;P2;durP2;ratioP2
68989;SDS011;56046;47.270;11.368;2022-12-07T00:03:33;9.17;;;4.00;;
68989;SDS011;56046;47.270;11.368;2022-12-07T00:05:59;8.45;;;3.65;;
68989;SDS011;56046;47.270;11.368;2022-12-07T00:08:24;8.70;;;4.00;;
68989;SDS011;56046;47.270;11.368;2022-12-07T00:10:49;9.60;;;3.70;;
68989;SDS011;56046;47.270;11.368;2022-12-07T00:13:15;6.90;;;3.23;;
68989;SDS011;56046;47.270;11.368;2022-12-07T00:15:40;5.33;;;2.80;;
68989;SDS011;56046;47.270;11.368;2022-12-07T00:18:05;8.00;;;3.23;;
68989;SDS011;56046;47.270;11.368;2022-12-07T00:20:31;8.57;;;3.87;;
68989;SDS011;56046;47.270;11.368;2022-12-07T00:22:56;8.68;;;4.15;;
68989;SDS011;56046;47.270;11.368;2022-12-07T00:25:21;11.20;;;4.10;;
68989;SDS011;56046;47.270;11.368;2022-12-07T00:27:47;10.23;;;4.53;;
68989;SDS011;56046;47.270;11.368;2022-12-07T00:30:12;10.77;;;4.80;;
68989;SDS011;56046;47.270;11.368;2022-12-07T00:32:37;11.50;;;5.40;;
68989;SDS011;56046;47.270;11.368;2022-12-07T00:35:03;11.37;;;5.97;;
68989;SDS011;56046;47.270;11.368;2022-12-07T00:37:28;13.53;;;5.87;;
68989;SDS011;56046;47.270;11.368;2022-12-07T00:39:53;13.33;;;5.83;;
68989;SDS011;56046;47.270;11.368;2022-12-07T00:42:18;9.23;;;4.67;;
68989;SDS011;56046;47.270;11.368;2022-12-07T00:44:44;10.87;;;4.83;;
68989;SDS011;56046;47.270;11.368;2022-12-07T00:47:09;10.13;;;4.87;;
68989;SDS011;56046;47.270;11.368;2022-12-07T00:49:34;9.83;;;4.50;;
68989;SDS011;56046;47.270;11.368;2022-12-07T00:52:00;10.50;;;4.97;;
68989;SDS011;56046;47.270;11.368;2022-12-07T00:54:25;10.73;;;4.17;;
68989;SDS011;56046;47.270;11.368;2022-12-07T00:56:50;8.33;;;4.47;;
68989;SDS011;56046;47.270;11.368;2022-12-07T00:59:15;7.90;;;3.80;;
68989;SDS011;56046;47.270;11.368;2022-12-07T01:01:41;8.33;;;4.33;;
68989;SDS011;56046;47.270;11.368;2022-12-07T01:04:06;8.85;;;4.25;;
68989;SDS011;56046;47.270;11.368;2022-12-07T01:06:31;7.63;;;3.85;;
68989;SDS011;56046;47.270;11.368;2022-12-07T01:08:57;8.53;;;3.53;;
68989;SDS011;56046;47.270;11.368;2022-12-07T01:11:23;8.07;;;2.87;;
68989;SDS011;56046;47.270;11.368;2022-12-07T01:13:50;6.63;;;2.10;;
68989;SDS011;56046;47.270;11.368;2022-12-07T01:16:18;5.65;;;2.25;;
68989;SDS011;56046;47.270;11.368;2022-12-07T01:18:45;6.95;;;2.67;;
68989;SDS011;56046;47.270;11.368;2022-12-07T01:21:12;8.10;;;2.60;;
68989;SDS011;56046;47.270;11.368;2022-12-07T01:23:37;5.82;;;2.58;;
68989;SDS011;56046;47.270;11.368;2022-12-07T01:26:04;6.00;;;2.50;;
68989;SDS011;56046;47.270;11.368;2022-12-07T01:28:30;5.40;;;2.13;;
68989;SDS011;56046;47.270;11.368;2022-12-07T01:30:59;6.18;;;2.55;;
68989;SDS011;56046;47.270;11.368;2022-12-07T01:33:26;5.90;;;2.37;;
68989;SDS011;56046;47.270;11.368;2022-12-07T01:35:52;9.07;;;2.72;;
68989;SDS011;56046;47.270;11.368;2022-12-07T01:38:17;6.40;;;2.57;;
68989;SDS011;56046;47.270;11.368;2022-12-07T01:40:42;8.50;;;2.60;;
68989;SDS011;56046;47.270;11.368;2022-12-07T01:43:14;4.83;;;2.30;;
68989;SDS011;56046;47.270;11.368;2022-12-07T01:45:41;6.25;;;2.90;;
68989;SDS011;56046;47.270;11.368;2022-12-07T01:48:07;7.43;;;2.47;;
68989;SDS011;56046;47.270;11.368;2022-12-07T01:50:34;6.73;;;2.37;;
68989;SDS011;56046;47.270;11.368;2022-12-07T01:53:00;5.35;;;2.30;;
68989;SDS011;56046;47.270;11.368;2022-12-07T01:55:26;6.00;;;2.58;;
68989;SDS011;56046;47.270;11.368;2022-12-07T01:57:52;7.00;;;2.50;;
68989;SDS011;56046;47.270;11.368;2022-12-07T02:00:18;6.67;;;3.03;;
68989;SDS011;56046;47.270;11.368;2022-12-07T02:02:47;5.57;;;2.75;;
68989;SDS011;56046;47.270;11.368;2022-12-07T02:05:13;9.25;;;3.60;;
68989;SDS011;56046;47.270;11.368;2022-12-07T02:07:39;11.40;;;3.60;;
68989;SDS011;56046;47.270;11.368;2022-12-07T02:10:12;9.70;;;3.40;;
68989;SDS011;56046;47.270;11.368;2022-12-07T02:12:37;8.52;;;3.60;;
68989;SDS011;56046;47.270;11.368;2022-12-07T02:15:02;7.60;;;3.93;;
68989;SDS011;56046;47.270;11.368;2022-12-07T02:17:30;7.82;;;3.58;;
68989;SDS011;56046;47.270;11.368;2022-12-07T02:25:12;8.93;;;3.65;;
68989;SDS011;56046;47.270;11.368;2022-12-07T02:27:54;9.02;;;4.25;;
68989;SDS011;56046;47.270;11.368;2022-12-07T02:30:20;9.38;;;4.22;;
68989;SDS011;56046;47.270;11.368;2022-12-07T02:35:26;7.68;;;3.38;;
68989;SDS011;56046;47.270;11.368;2022-12-07T02:40:36;7.65;;;3.58;;
68989;SDS011;56046;47.270;11.368;2022-12-07T02:43:08;7.57;;;3.60;;
68989;SDS011;56046;47.270;11.368;2022-12-07T02:45:36;9.07;;;3.58;;
68989;SDS011;56046;47.270;11.368;2022-12-07T02:48:02;7.75;;;3.85;;
68989;SDS011;56046;47.270;11.368;2022-12-07T02:50:28;7.85;;;3.53;;
68989;SDS011;56046;47.270;11.368;2022-12-07T02:52:53;8.60;;;4.10;;
68989;SDS011;56046;47.270;11.368;2022-12-07T02:55:20;7.13;;;3.93;;
68989;SDS011;56046;47.270;11.368;2022-12-07T03:00:18;8.63;;;3.73;;
68989;SDS011;56046;47.270;11.368;2022-12-07T03:02:55;7.13;;;2.95;;
68989;SDS011;56046;47.270;11.368;2022-12-07T03:05:27;7.75;;;3.17;;
68989;SDS011;56046;47.270;11.368;2022-12-07T03:08:02;7.18;;;3.00;;
68989;SDS011;56046;47.270;11.368;2022-12-07T03:15:43;7.13;;;3.20;;
68989;SDS011;56046;47.270;11.368;2022-12-07T03:18:11;7.70;;;3.13;;
68989;SDS011;56046;47.270;11.368;2022-12-07T03:20:38;6.57;;;2.80;;
68989;SDS011;56046;47.270;11.368;2022-12-07T03:23:07;8.27;;;3.15;;
68989;SDS011;56046;47.270;11.368;2022-12-07T03:25:35;6.60;;;3.20;;
68989;SDS011;56046;47.270;11.368;2022-12-07T03:28:05;7.88;;;3.90;;
68989;SDS011;56046;47.270;11.368;2022-12-07T03:30:51;5.70;;;3.13;;
68989;SDS011;56046;47.270;11.368;2022-12-07T03:33:22;7.65;;;3.30;;
68989;SDS011;56046;47.270;11.368;2022-12-07T03:35:55;6.75;;;3.20;;
68989;SDS011;56046;47.270;11.368;2022-12-07T03:38:37;9.00;;;3.70;;
68989;SDS011;56046;47.270;11.368;2022-12-07T03:41:12;8.45;;;3.15;;
68989;SDS011;56046;47.270;11.368;2022-12-07T03:43:40;6.15;;;2.80;;
68989;SDS011;56046;47.270;11.368;2022-12-07T03:46:13;6.07;;;2.95;;
68989;SDS011;56046;47.270;11.368;2022-12-07T03:48:44;6.60;;;3.10;;
68989;SDS011;56046;47.270;11.368;2022-12-07T03:51:13;4.90;;;2.35;;
68989;SDS011;56046;47.270;11.368;2022-12-07T03:53:44;5.93;;;2.38;;
68989;SDS011;56046;47.270;11.368;2022-12-07T03:56:11;6.38;;;2.60;;
68989;SDS011;56046;47.270;11.368;2022-12-07T03:58:36;5.53;;;2.83;;
68989;SDS011;56046;47.270;11.368;2022-12-07T04:01:03;7.20;;;3.40;;
68989;SDS011;56046;47.270;11.368;2022-12-07T04:03:28;8.40;;;3.10;;
68989;SDS011;56046;47.270;11.368;2022-12-07T04:05:53;6.40;;;2.80;;
68989;SDS011;56046;47.270;11.368;2022-12-07T04:08:18;6.93;;;2.63;;
68989;SDS011;56046;47.270;11.368;2022-12-07T04:10:44;5.87;;;2.53;;
68989;SDS011;56046;47.270;11.368;2022-12-07T04:13:09;5.33;;;2.57;;
68989;SDS011;56046;47.270;11.368;2022-12-07T04:15:34;7.90;;;3.40;;
68989;SDS011;56046;47.270;11.368;2022-12-07T04:17:59;5.83;;;3.23;;
68989;SDS011;56046;47.270;11.368;2022-12-07T04:20:25;7.90;;;3.53;;
68989;SDS011;56046;47.270;11.368;2022-12-07T04:22:50;6.07;;;3.10;;
68989;SDS011;56046;47.270;11.368;2022-12-07T04:25:15;7.73;;;2.90;;
68989;SDS011;56046;47.270;11.368;2022-12-07T04:27:40;6.73;;;2.80;;
68989;SDS011;56046;47.270;11.368;2022-12-07T04:30:06;5.80;;;3.00;;
68989;SDS011;56046;47.270;11.368;2022-12-07T04:32:31;6.57;;;3.00;;
68989;SDS011;56046;47.270;11.368;2022-12-07T04:34:57;9.15;;;3.13;;
68989;SDS011;56046;47.270;11.368;2022-12-07T04:37:22;8.33;;;3.40;;
68989;SDS011;56046;47.270;11.368;2022-12-07T04:39:47;8.53;;;3.73;;
68989;SDS011;56046;47.270;11.368;2022-12-07T04:42:13;7.77;;;3.77;;
68989;SDS011;56046;47.270;11.368;2022-12-07T04:44:38;7.13;;;3.43;;
68989;SDS011;56046;47.270;11.368;2022-12-07T04:47:04;6.20;;;2.60;;
68989;SDS011;56046;47.270;11.368;2022-12-07T04:49:29;8.30;;;3.30;;
68989;SDS011;56046;47.270;11.368;2022-12-07T04:51:54;6.93;;;2.80;;
68989;SDS011;56046;47.270;11.368;2022-12-07T04:54:19;8.07;;;3.13;;
68989;SDS011;56046;47.270;11.368;2022-12-07T04:56:45;6.50;;;3.50;;
68989;SDS011;56046;47.270;11.368;2022-12-07T04:59:13;7.00;;;3.10;;
68989;SDS011;56046;47.270;11.368;2022-12-07T05:01:39;6.57;;;3.37;;
68989;SDS011;56046;47.270;11.368;2022-12-07T05:04:04;9.48;;;3.58;;
68989;SDS011;56046;47.270;11.368;2022-12-07T05:06:29;5.63;;;2.90;;
68989;SDS011;56046;47.270;11.368;2022-12-07T05:08:55;6.67;;;3.07;;
68989;SDS011;56046;47.270;11.368;2022-12-07T05:11:20;7.20;;;2.80;;
68989;SDS011;56046;47.270;11.368;2022-12-07T05:14:05;6.72;;;3.00;;
68989;SDS011;56046;47.270;11.368;2022-12-07T05:16:30;6.75;;;2.83;;
68989;SDS011;56046;47.270;11.368;2022-12-07T05:18:56;5.63;;;2.77;;
68989;SDS011;56046;47.270;11.368;2022-12-07T05:21:21;6.70;;;2.57;;
68989;SDS011;56046;47.270;11.368;2022-12-07T05:23:46;5.83;;;2.87;;
68989;SDS011;56046;47.270;11.368;2022-12-07T05:26:12;7.93;;;2.83;;
68989;SDS011;56046;47.270;11.368;2022-12-07T05:28:37;8.67;;;3.40;;
68989;SDS011;56046;47.270;11.368;2022-12-07T05:31:02;9.53;;;4.27;;
68989;SDS011;56046;47.270;11.368;2022-12-07T05:33:28;14.60;;;7.67;;
68989;SDS011;56046;47.270;11.368;2022-12-07T05:35:53;10.07;;;4.22;;
68989;SDS011;56046;47.270;11.368;2022-12-07T05:38:18;9.17;;;3.53;;
68989;SDS011;56046;47.270;11.368;2022-12-07T05:40:43;6.13;;;2.67;;
68989;SDS011;56046;47.270;11.368;2022-12-07T05:43:10;7.37;;;2.50;;
68989;SDS011;56046;47.270;11.368;2022-12-07T05:45:35;5.67;;;2.33;;
68989;SDS011;56046;47.270;11.368;2022-12-07T05:48:00;10.57;;;4.17;;
68989;SDS011;56046;47.270;11.368;2022-12-07T05:50:26;12.30;;;5.43;;
68989;SDS011;56046;47.270;11.368;2022-12-07T05:52:52;12.65;;;3.42;;
68989;SDS011;56046;47.270;11.368;2022-12-07T05:55:18;5.50;;;3.20;;
68989;SDS011;56046;47.270;11.368;2022-12-07T05:57:43;5.50;;;2.10;;
68989;SDS011;56046;47.270;11.368;2022-12-07T06:00:28;9.50;;;2.00;;
68989;SDS011;56046;47.270;11.368;2022-12-07T06:02:53;3.77;;;1.80;;
68989;SDS011;56046;47.270;11.368;2022-12-07T06:05:18;5.27;;;1.60;;
68989;SDS011;56046;47.270;11.368;2022-12-07T06:07:44;6.40;;;1.60;;
68989;SDS011;56046;47.270;11.368;2022-12-07T06:10:09;6.03;;;1.57;;
68989;SDS011;56046;47.270;11.368;2022-12-07T06:12:34;3.27;;;1.30;;
68989;SDS011;56046;47.270;11.368;2022-12-07T06:15:00;4.40;;;1.33;;
68989;SDS011;56046;47.270;11.368;2022-12-07T06:17:25;3.30;;;1.20;;
68989;SDS011;56046;47.270;11.368;2022-12-07T06:19:51;2.63;;;1.27;;
68989;SDS011;56046;47.270;11.368;2022-12-07T06:22:16;2.13;;;1.00;;
68989;SDS011;56046;47.270;11.368;2022-12-07T06:24:42;5.25;;;1.60;;
68989;SDS011;56046;47.270;11.368;2022-12-07T06:27:08;3.07;;;0.90;;
68989;SDS011;56046;47.270;11.368;2022-12-07T06:29:33;4.50;;;1.43;;
68989;SDS011;56046;47.270;11.368;2022-12-07T06:31:58;3.87;;;1.20;;
68989;SDS011;56046;47.270;11.368;2022-12-07T06:34:24;3.30;;;1.30;;
68989;SDS011;56046;47.270;11.368;2022-12-07T06:36:50;2.28;;;0.90;;
68989;SDS011;56046;47.270;11.368;2022-12-07T06:39:23;3.00;;;1.25;;
68989;SDS011;56046;47.270;11.368;2022-12-07T06:41:49;3.33;;;1.40;;
68989;SDS011;56046;47.270;11.368;2022-12-07T06:44:16;3.65;;;1.25;;
68989;SDS011;56046;47.270;11.368;2022-12-07T06:46:41;4.60;;;2.00;;
68989;SDS011;56046;47.270;11.368;2022-12-07T06:49:07;4.17;;;1.40;;
68989;SDS011;56046;47.270;11.368;2022-12-07T06:51:32;6.80;;;2.83;;
68989;SDS011;56046;47.270;11.368;2022-12-07T06:54:00;4.10;;;2.10;;
68989;SDS011;56046;47.270;11.368;2022-12-07T06:56:25;4.25;;;2.17;;
68989;SDS011;56046;47.270;11.368;2022-12-07T06:58:50;5.10;;;2.20;;
68989;SDS011;56046;47.270;11.368;2022-12-07T07:01:16;3.20;;;1.60;;
68989;SDS011;56046;47.270;11.368;2022-12-07T07:03:43;9.43;;;3.33;;
68989;SDS011;56046;47.270;11.368;2022-12-07T07:06:08;8.55;;;4.10;;
68989;SDS011;56046;47.270;11.368;2022-12-07T07:08:34;10.83;;;4.07;;
68989;SDS011;56046;47.270;11.368;2022-12-07T07:11:00;7.57;;;3.17;;
68989;SDS011;56046;47.270;11.368;2022-12-07T07:13:25;7.07;;;3.10;;
68989;SDS011;56046;47.270;11.368;2022-12-07T07:15:50;6.93;;;3.20;;
68989;SDS011;56046;47.270;11.368;2022-12-07T07:18:16;8.30;;;2.80;;
68989;SDS011;56046;47.270;11.368;2022-12-07T07:20:41;5.77;;;2.70;;
68989;SDS011;56046;47.270;11.368;2022-12-07T07:23:06;7.63;;;2.50;;
68989;SDS011;56046;47.270;11.368;2022-12-07T07:25:32;5.35;;;2.47;;
68989;SDS011;56046;47.270;11.368;2022-12-07T07:27:57;6.63;;;2.53;;
68989;SDS011;56046;47.270;11.368;2022-12-07T07:30:23;6.83;;;2.53;;
68989;SDS011;56046;47.270;11.368;2022-12-07T07:32:48;4.80;;;1.97;;
68989;SDS011;56046;47.270;11.368;2022-12-07T07:35:13;7.77;;;2.77;;
68989;SDS011;56046;47.270;11.368;2022-12-07T07:37:39;7.03;;;2.90;;
68989;SDS011;56046;47.270;11.368;2022-12-07T07:40:04;6.25;;;2.67;;
68989;SDS011;56046;47.270;11.368;2022-12-07T07:42:30;9.63;;;3.07;;
68989;SDS011;56046;47.270;11.368;2022-12-07T07:44:55;5.53;;;2.07;;
68989;SDS011;56046;47.270;11.368;2022-12-07T07:47:20;4.43;;;1.70;;
68989;SDS011;56046;47.270;11.368;2022-12-07T07:49:45;7.07;;;3.40;;
68989;SDS011;56046;47.270;11.368;2022-12-07T07:52:11;7.40;;;3.00;;
68989;SDS011;56046;47.270;11.368;2022-12-07T07:54:36;6.83;;;2.67;;
68989;SDS011;56046;47.270;11.368;2022-12-07T07:57:01;7.03;;;2.77;;
68989;SDS011;56046;47.270;11.368;2022-12-07T07:59:26;5.57;;;2.10;;
68989;SDS011;56046;47.270;11.368;2022-12-07T08:01:52;5.07;;;1.90;;
68989;SDS011;56046;47.270;11.368;2022-12-07T08:04:17;7.17;;;1.97;;
68989;SDS011;56046;47.270;11.368;2022-12-07T08:06:42;6.83;;;2.37;;
68989;SDS011;56046;47.270;11.368;2022-12-07T08:09:08;7.47;;;2.90;;
68989;SDS011;56046;47.270;11.368;2022-12-07T08:11:33;6.22;;;2.17;;
68989;SDS011;56046;47.270;11.368;2022-12-07T08:13:58;6.70;;;2.33;;
68989;SDS011;56046;47.270;11.368;2022-12-07T08:16:24;5.60;;;2.30;;
68989;SDS011;56046;47.270;11.368;2022-12-07T08:18:49;5.33;;;2.20;;
68989;SDS011;56046;47.270;11.368;2022-12-07T08:21:15;5.20;;;2.27;;
68989;SDS011;56046;47.270;11.368;2022-12-07T08:23:40;6.93;;;1.90;;
68989;SDS011;56046;47.270;11.368;2022-12-07T08:26:13;5.47;;;2.10;;
68989;SDS011;56046;47.270;11.368;2022-12-07T08:28:39;4.72;;;2.13;;
68989;SDS011;56046;47.270;11.368;2022-12-07T08:31:10;6.10;;;2.20;;
68989;SDS011;56046;47.270;11.368;2022-12-07T08:33:36;5.15;;;2.30;;
68989;SDS011;56046;47.270;11.368;2022-12-07T08:36:02;6.07;;;2.70;;
68989;SDS011;56046;47.270;11.368;2022-12-07T08:38:27;5.05;;;2.33;;
68989;SDS011;56046;47.270;11.368;2022-12-07T08:40:53;6.03;;;2.63;;
68989;SDS011;56046;47.270;11.368;2022-12-07T08:43:19;6.75;;;2.92;;
68989;SDS011;56046;47.270;11.368;2022-12-07T08:45:44;11.07;;;5.27;;
68989;SDS011;56046;47.270;11.368;2022-12-07T08:48:10;10.17;;;5.20;;
68989;SDS011;56046;47.270;11.368;2022-12-07T08:50:37;11.85;;;4.93;;
68989;SDS011;56046;47.270;11.368;2022-12-07T08:53:02;6.27;;;2.80;;
68989;SDS011;56046;47.270;11.368;2022-12-07T08:55:29;9.15;;;3.00;;
68989;SDS011;56046;47.270;11.368;2022-12-07T08:57:56;8.30;;;2.30;;
68989;SDS011;56046;47.270;11.368;2022-12-07T09:00:22;4.57;;;1.50;;
68989;SDS011;56046;47.270;11.368;2022-12-07T09:02:47;3.67;;;1.33;;
68989;SDS011;56046;47.270;11.368;2022-12-07T09:05:13;5.00;;;1.90;;
68989;SDS011;56046;47.270;11.368;2022-12-07T09:07:40;4.93;;;1.60;;
68989;SDS011;56046;47.270;11.368;2022-12-07T09:10:05;2.95;;;1.40;;
68989;SDS011;56046;47.270;11.368;2022-12-07T09:12:31;3.73;;;1.60;;
68989;SDS011;56046;47.270;11.368;2022-12-07T09:14:56;4.47;;;1.80;;
68989;SDS011;56046;47.270;11.368;2022-12-07T09:17:21;9.37;;;3.87;;
68989;SDS011;56046;47.270;11.368;2022-12-07T09:19:46;8.13;;;3.60;;
68989;SDS011;56046;47.270;11.368;2022-12-07T09:22:12;5.97;;;1.90;;
68989;SDS011;56046;47.270;11.368;2022-12-07T09:24:37;7.87;;;2.10;;
68989;SDS011;56046;47.270;11.368;2022-12-07T09:27:02;5.50;;;2.40;;
68989;SDS011;56046;47.270;11.368;2022-12-07T09:29:27;5.40;;;2.33;;
68989;SDS011;56046;47.270;11.368;2022-12-07T09:31:53;7.80;;;2.90;;
68989;SDS011;56046;47.270;11.368;2022-12-07T09:34:18;6.00;;;2.67;;
68989;SDS011;56046;47.270;11.368;2022-12-07T09:36:44;10.13;;;4.20;;
68989;SDS011;56046;47.270;11.368;2022-12-07T09:39:09;11.63;;;4.40;;
68989;SDS011;56046;47.270;11.368;2022-12-07T09:41:37;14.85;;;5.75;;
68989;SDS011;56046;47.270;11.368;2022-12-07T09:44:05;12.10;;;5.47;;
68989;SDS011;56046;47.270;11.368;2022-12-07T09:46:34;10.75;;;4.82;;
68989;SDS011;56046;47.270;11.368;2022-12-07T09:49:00;12.00;;;4.50;;
68989;SDS011;56046;47.270;11.368;2022-12-07T09:51:25;11.13;;;4.67;;
68989;SDS011;56046;47.270;11.368;2022-12-07T09:53:54;12.43;;;5.03;;
68989;SDS011;56046;47.270;11.368;2022-12-07T09:56:21;13.02;;;6.80;;
68989;SDS011;56046;47.270;11.368;2022-12-07T09:58:47;12.57;;;5.63;;
68989;SDS011;56046;47.270;11.368;2022-12-07T10:03:38;11.50;;;5.10;;
68989;SDS011;56046;47.270;11.368;2022-12-07T10:06:04;11.38;;;4.85;;
68989;SDS011;56046;47.270;11.368;2022-12-07T10:08:31;13.95;;;6.75;;
68989;SDS011;56046;47.270;11.368;2022-12-07T10:10:56;12.67;;;7.70;;
68989;SDS011;56046;47.270;11.368;2022-12-07T10:13:43;13.73;;;6.50;;
68989;SDS011;56046;47.270;11.368;2022-12-07T10:18:49;13.23;;;6.47;;
68989;SDS011;56046;47.270;11.368;2022-12-07T10:21:15;7.77;;;3.67;;
68989;SDS011;56046;47.270;11.368;2022-12-07T10:26:31;11.82;;;5.15;;
68989;SDS011;56046;47.270;11.368;2022-12-07T10:29:01;11.50;;;4.53;;
68989;SDS011;56046;47.270;11.368;2022-12-07T10:31:27;10.25;;;4.80;;
68989;SDS011;56046;47.270;11.368;2022-12-07T10:36:19;13.43;;;5.80;;
68989;SDS011;56046;47.270;11.368;2022-12-07T10:39:04;15.35;;;5.25;;
68989;SDS011;56046;47.270;11.368;2022-12-07T10:41:33;11.77;;;5.22;;
68989;SDS011;56046;47.270;11.368;2022-12-07T10:43:59;11.20;;;4.60;;
68989;SDS011;56046;47.270;11.368;2022-12-07T10:46:31;10.67;;;4.87;;
68989;SDS011;56046;47.270;11.368;2022-12-07T10:57:01;12.02;;;3.60;;
68989;SDS011;56046;47.270;11.368;2022-12-07T11:05:01;18.08;;;9.70;;
68989;SDS011;56046;47.270;11.368;2022-12-07T11:10:13;9.68;;;4.35;;
68989;SDS011;56046;47.270;11.368;2022-12-07T11:15:24;16.70;;;6.25;;
68989;SDS011;56046;47.270;11.368;2022-12-07T11:18:04;9.73;;;4.35;;
68989;SDS011;56046;47.270;11.368;2022-12-07T11:28:16;13.73;;;7.47;;
68989;SDS011;56046;47.270;11.368;2022-12-07T11:33:17;10.13;;;3.93;;
68989;SDS011;56046;47.270;11.368;2022-12-07T11:38:23;12.80;;;4.20;;
68989;SDS011;56046;47.270;11.368;2022-12-07T11:40:51;8.00;;;3.40;;
68989;SDS011;56046;47.270;11.368;2022-12-07T11:43:22;12.18;;;4.03;;
68989;SDS011;56046;47.270;11.368;2022-12-07T11:46:09;12.02;;;4.28;;
68989;SDS011;56046;47.270;11.368;2022-12-07T11:48:38;8.23;;;3.75;;
68989;SDS011;56046;47.270;11.368;2022-12-07T11:51:03;8.93;;;3.45;;
68989;SDS011;56046;47.270;11.368;2022-12-07T11:53:33;7.60;;;3.80;;
68989;SDS011;56046;47.270;11.368;2022-12-07T12:03:38;10.98;;;4.30;;
68989;SDS011;56046;47.270;11.368;2022-12-07T12:06:05;10.70;;;4.20;;
68989;SDS011;56046;47.270;11.368;2022-12-07T12:08:33;7.43;;;3.67;;
68989;SDS011;56046;47.270;11.368;2022-12-07T12:21:17;21.27;;;5.65;;
68989;SDS011;56046;47.270;11.368;2022-12-07T12:23:54;19.15;;;5.10;;
68989;SDS011;56046;47.270;11.368;2022-12-07T12:26:21;13.32;;;5.13;;
68989;SDS011;56046;47.270;11.368;2022-12-07T12:33:46;11.63;;;4.82;;
68989;SDS011;56046;47.270;11.368;2022-12-07T12:38:50;14.18;;;4.72;;
68989;SDS011;56046;47.270;11.368;2022-12-07T12:44:00;14.60;;;5.15;;
68989;SDS011;56046;47.270;11.368;2022-12-07T12:51:41;9.52;;;4.30;;
68989;SDS011;56046;47.270;11.368;2022-12-07T12:54:19;12.00;;;4.30;;
68989;SDS011;56046;47.270;11.368;2022-12-07T13:05:16;9.25;;;3.72;;
68989;SDS011;56046;47.270;11.368;2022-12-07T13:12:58;8.53;;;2.87;;
68989;SDS011;56046;47.270;11.368;2022-12-07T13:15:40;4.38;;;2.40;;
68989;SDS011;56046;47.270;11.368;2022-12-07T13:23:19;5.20;;;2.40;;
68989;SDS011;56046;47.270;11.368;2022-12-07T13:25:51;6.43;;;2.75;;
68989;SDS011;56046;47.270;11.368;2022-12-07T13:28:18;7.63;;;3.22;;
68989;SDS011;56046;47.270;11.368;2022-12-07T13:33:30;7.47;;;3.17;;
68989;SDS011;56046;47.270;11.368;2022-12-07T13:35:59;8.45;;;3.50;;
68989;SDS011;56046;47.270;11.368;2022-12-07T13:38:27;7.35;;;3.13;;
68989;SDS011;56046;47.270;11.368;2022-12-07T13:41:26;8.15;;;3.38;;
68989;SDS011;56046;47.270;11.368;2022-12-07T13:43:45;7.78;;;3.53;;
68989;SDS011;56046;47.270;11.368;2022-12-07T13:46:12;9.02;;;3.65;;
68989;SDS011;56046;47.270;11.368;2022-12-07T13:51:14;8.77;;;3.37;;
68989;SDS011;56046;47.270;11.368;2022-12-07T13:53:45;6.53;;;2.88;;
68989;SDS011;56046;47.270;11.368;2022-12-07T13:56:12;10.80;;;3.63;;
68989;SDS011;56046;47.270;11.368;2022-12-07T13:58:38;7.78;;;3.08;;
68989;SDS011;56046;47.270;11.368;2022-12-07T14:01:03;6.70;;;2.93;;
68989;SDS011;56046;47.270;11.368;2022-12-07T14:03:33;8.63;;;3.17;;
68989;SDS011;56046;47.270;11.368;2022-12-07T14:06:03;5.93;;;3.00;;
68989;SDS011;56046;47.270;11.368;2022-12-07T14:08:29;6.20;;;3.08;;
68989;SDS011;56046;47.270;11.368;2022-12-07T14:10:55;7.78;;;3.83;;
68989;SDS011;56046;47.270;11.368;2022-12-07T14:15:55;8.77;;;3.20;;
68989;SDS011;56046;47.270;11.368;2022-12-07T14:18:29;6.93;;;3.50;;
68989;SDS011;56046;47.270;11.368;2022-12-07T14:23:28;9.40;;;3.72;;
68989;SDS011;56046;47.270;11.368;2022-12-07T14:26:03;9.60;;;3.70;;
68989;SDS011;56046;47.270;11.368;2022-12-07T14:28:30;9.00;;;3.20;;
68989;SDS011;56046;47.270;11.368;2022-12-07T14:30:56;10.13;;;3.53;;
68989;SDS011;56046;47.270;11.368;2022-12-07T14:33:21;10.45;;;3.47;;
68989;SDS011;56046;47.270;11.368;2022-12-07T14:35:47;8.95;;;4.05;;
68989;SDS011;56046;47.270;11.368;2022-12-07T14:38:14;11.63;;;4.00;;
68989;SDS011;56046;47.270;11.368;2022-12-07T14:40:39;8.50;;;3.30;;
68989;SDS011;56046;47.270;11.368;2022-12-07T14:43:08;8.43;;;3.75;;
68989;SDS011;56046;47.270;11.368;2022-12-07T14:45:33;12.93;;;4.47;;
68989;SDS011;56046;47.270;11.368;2022-12-07T14:47:59;10.60;;;3.75;;
68989;SDS011;56046;47.270;11.368;2022-12-07T14:50:24;10.98;;;4.53;;
68989;SDS011;56046;47.270;11.368;2022-12-07T14:52:51;12.07;;;4.03;;
68989;SDS011;56046;47.270;11.368;2022-12-07T14:57:48;9.90;;;3.80;;
68989;SDS011;56046;47.270;11.368;2022-12-07T15:00:13;11.23;;;3.83;;
68989;SDS011;56046;47.270;11.368;2022-12-07T15:02:39;8.48;;;4.32;;
68989;SDS011;56046;47.270;11.368;2022-12-07T15:05:04;11.93;;;4.30;;
68989;SDS011;56046;47.270;11.368;2022-12-07T15:07:29;11.27;;;4.67;;
68989;SDS011;56046;47.270;11.368;2022-12-07T15:09:55;10.93;;;4.30;;
68989;SDS011;56046;47.270;11.368;2022-12-07T15:12:20;7.20;;;3.80;;
68989;SDS011;56046;47.270;11.368;2022-12-07T15:14:45;8.10;;;3.93;;
68989;SDS011;56046;47.270;11.368;2022-12-07T15:17:11;9.13;;;4.37;;
68989;SDS011;56046;47.270;11.368;2022-12-07T15:19:39;8.60;;;3.80;;
68989;SDS011;56046;47.270;11.368;2022-12-07T15:22:04;8.93;;;3.90;;
68989;SDS011;56046;47.270;11.368;2022-12-07T15:24:29;10.47;;;4.43;;
68989;SDS011;56046;47.270;11.368;2022-12-07T15:26:55;9.43;;;4.17;;
68989;SDS011;56046;47.270;11.368;2022-12-07T15:29:20;8.97;;;4.50;;
68989;SDS011;56046;47.270;11.368;2022-12-07T15:31:47;9.43;;;4.20;;
68989;SDS011;56046;47.270;11.368;2022-12-07T15:34:12;11.37;;;4.23;;
68989;SDS011;56046;47.270;11.368;2022-12-07T15:36:37;7.68;;;4.10;;
68989;SDS011;56046;47.270;11.368;2022-12-07T15:39:03;11.93;;;4.15;;
68989;SDS011;56046;47.270;11.368;2022-12-07T15:41:28;8.70;;;4.33;;
68989;SDS011;56046;47.270;11.368;2022-12-07T15:43:53;9.57;;;4.60;;
68989;SDS011;56046;47.270;11.368;2022-12-07T15:46:39;8.77;;;4.40;;
68989;SDS011;56046;47.270;11.368;2022-12-07T15:49:15;10.50;;;4.33;;
68989;SDS011;56046;47.270;11.368;2022-12-07T15:51:41;8.32;;;3.97;;
68989;SDS011;56046;47.270;11.368;2022-12-07T15:54:06;8.25;;;4.07;;
68989;SDS011;56046;47.270;11.368;2022-12-07T15:56:32;15.20;;;5.43;;
68989;SDS011;56046;47.270;11.368;2022-12-07T15:58:57;16.47;;;8.33;;
68989;SDS011;56046;47.270;11.368;2022-12-07T16:01:23;9.63;;;5.32;;
68989;SDS011;56046;47.270;11.368;2022-12-07T16:03:48;9.02;;;4.13;;
68989;SDS011;56046;47.270;11.368;2022-12-07T16:06:17;10.30;;;4.43;;
68989;SDS011;56046;47.270;11.368;2022-12-07T16:08:43;11.50;;;4.97;;
68989;SDS011;56046;47.270;11.368;2022-12-07T16:11:08;10.80;;;4.53;;
68989;SDS011;56046;47.270;11.368;2022-12-07T16:13:34;11.23;;;4.77;;
68989;SDS011;56046;47.270;11.368;2022-12-07T16:16:03;13.82;;;5.30;;
68989;SDS011;56046;47.270;11.368;2022-12-07T16:18:28;12.55;;;4.80;;
68989;SDS011;56046;47.270;11.368;2022-12-07T16:20:54;8.60;;;4.83;;
68989;SDS011;56046;47.270;11.368;2022-12-07T16:23:19;11.57;;;4.87;;
68989;SDS011;56046;47.270;11.368;2022-12-07T16:25:44;11.53;;;4.60;;
68989;SDS011;56046;47.270;11.368;2022-12-07T16:28:09;9.40;;;4.47;;
68989;SDS011;56046;47.270;11.368;2022-12-07T16:30:35;14.45;;;4.72;;
68989;SDS011;56046;47.270;11.368;2022-12-07T16:33:00;10.55;;;4.47;;
68989;SDS011;56046;47.270;11.368;2022-12-07T16:35:25;10.70;;;4.00;;
68989;SDS011;56046;47.270;11.368;2022-12-07T16:37:50;11.75;;;5.05;;